Kezdőlap
METAR-TAF:

METAR-TAF

Repülőterek :

Kosrae, Mikronézia

földrajzi szélesség: 05-21N, földrajzi hosszúság: 162-57E, magasság: 3 m

Jelenlegi meteorológiai megfigyelések

A jelentés 1 órával és 10 perccel ezelõtt készült, 03:53 UTC
Északkeleti szél 13 kt
Hőmérséklet 31°C
Páratartalom 71%
Légköri nyomás 1009 hPa
Látótávolság: 16.1 km
Szórványos felhőzet 2000 lábon, Tornyos gomolyfelhő.
Szakadozott felhőzet 13000 lábon
Szakadozott felhőzet 30000 lábon

METAR: PTSA 140353Z 05013KT 10SM SCT020TCU BKN130 BKN300 31/25 A2980 RMK TCU SW

Idő: 16:03 (05:03 UTC)

Előrejelzés

A jelentés 23 órával és 25 perccel ezelõtt készült, 05:38 UTC
Az előrejelzés 13-én 06 óra UTC és 14-én 06 óra UTC között érvényes
Kelet-északkeleti szél 11 kt
Látótávolság: 10 km
Szórványos felhőzet 2000 lábon
Szakadozott felhőzet 12000 lábon
Záporok a közelben,

TAF: PTSA 130538Z 1306/1406 07011KT P6SM VCSH SCT020 BKN120

Meteorológiai megfigyelések és előrejelzések több, mint 4000 repülőtéren (METAR és TAF jelentéseket).

A térképen piros és sárga pontok jelzik az elérhető meteorológiai állomásokat.

Mozgassa az egeret a pont fölött, hogy megjelenjen az állomás neve.

Azután kattintson az időjárási megfigyelések és előrejelzések megtekintéséhez.

A térkép megváltoztatása: kattintson a fekete keresztel jelölt zöld gombra ráközelítéshez, a vonallal jelölt zöld gombra távolításhoz, vagy a zöld nyilakra a szomszédos térképek eléréséhez.


METAR-TAF: